South Whitley, Indiana
Current Conditions -  °F | °C
As of 5:35 AM on Sunday 21 Dec 2014 (Local Time) from KASW Reporting Station
Haze Haze  
Wind Chill: 30°   Ceiling: 5500
Heat Index: 30°   Visibility: 5mi
Dew Point: 28°   Wind: 0mph
Humidity: 93%   Direction: NA
Pressure: 30.27"   Gusts: NA
Location:  41.08°N, 85.63°W
Report Text: KASW 211035Z AUTO 00000KT 5SM BR OVC055 M01/M02 A3027 RMK AO2
Loading
Personal Weather Stations






























Interactive Weather Map New forecast layout! Learn more

10-Day Weather Forecast

Advertisements
Track Severe Weather on mobile